createdAt,value
2023-05-19T00:01:49.182Z,98766.84
2023-05-19T00:04:15.940Z,98768.69
2023-05-19T00:06:42.605Z,98768.69
2023-05-19T00:09:10.371Z,98765.81
2023-05-19T00:11:38.976Z,98767.28
2023-05-19T00:14:07.657Z,98765.22
2023-05-19T00:16:34.448Z,98765.22
2023-05-19T00:19:03.461Z,98770.97
2023-05-19T00:21:30.290Z,98759.69
2023-05-19T00:23:56.698Z,98757.63
2023-05-19T00:26:27.973Z,98751.47
2023-05-19T00:28:54.804Z,98756.81
2023-05-19T00:31:21.512Z,98758.66
2023-05-19T00:33:47.885Z,98754.13
2023-05-19T00:36:14.289Z,98757.00
2023-05-19T00:38:40.785Z,98757.41
2023-05-19T00:41:07.358Z,98752.91
2023-05-19T00:46:12.283Z,98744.91
2023-05-19T00:48:38.821Z,98747.75
2023-05-19T00:51:05.460Z,98743.88
2023-05-19T00:53:35.297Z,98739.16
2023-05-19T00:56:02.685Z,98737.88
2023-05-19T00:58:30.319Z,98741.41
2023-05-19T01:01:00.398Z,98741.00
2023-05-19T01:03:27.056Z,98738.94
2023-05-19T01:05:53.443Z,98735.88
2023-05-19T01:08:19.871Z,98730.28
2023-05-19T01:10:46.249Z,98728.47
2023-05-19T01:13:12.698Z,98724.97
2023-05-19T01:16:11.352Z,98711.63
2023-05-19T01:18:50.459Z,98711.63
2023-05-19T01:21:43.434Z,98720.06
2023-05-19T01:24:28.544Z,98709.78
2023-05-19T01:27:24.283Z,98720.44
2023-05-19T01:30:11.577Z,98711.22
2023-05-19T01:32:41.999Z,98717.16
2023-05-19T01:35:10.141Z,98712.66
2023-05-19T01:37:38.831Z,98713.69
2023-05-19T01:40:09.317Z,98717.34
2023-05-19T01:42:38.016Z,98715.91
2023-05-19T01:45:05.072Z,98711.00
2023-05-19T01:47:35.639Z,98712.41
2023-05-19T01:50:02.948Z,98714.06
2023-05-19T01:55:10.889Z,98711.00
2023-05-19T01:57:43.310Z,98711.41
2023-05-19T02:00:27.055Z,98719.41
2023-05-19T02:03:27.155Z,98716.53
2023-05-19T02:06:18.349Z,98723.75
2023-05-19T02:08:57.121Z,98717.97
2023-05-19T02:11:47.303Z,98724.56
2023-05-19T02:14:24.884Z,98726.41
2023-05-19T02:16:52.400Z,98725.56
2023-05-19T02:19:26.328Z,98719.81
2023-05-19T02:21:53.141Z,98716.72
2023-05-19T02:24:19.908Z,98718.53
2023-05-19T02:26:46.491Z,98723.25
2023-05-19T02:29:12.822Z,98710.34
2023-05-19T02:31:39.335Z,98711.78
2023-05-19T02:37:28.146Z,98700.69
2023-05-19T02:39:54.824Z,98709.50
2023-05-19T02:45:02.809Z,98698.63
2023-05-19T02:47:29.156Z,98695.38
2023-05-19T02:49:55.519Z,98695.81
2023-05-19T02:52:21.927Z,98691.50
2023-05-19T02:54:48.252Z,98688.78
2023-05-19T02:57:14.608Z,98679.97
2023-05-19T02:59:40.964Z,98687.97
2023-05-19T03:02:07.491Z,98684.09
2023-05-19T03:04:33.974Z,98695.81
2023-05-19T03:07:00.330Z,98690.47
2023-05-19T03:09:26.770Z,98693.34
2023-05-19T03:11:53.122Z,98685.75
2023-05-19T03:14:19.459Z,98692.94
2023-05-19T03:16:45.987Z,98697.03
2023-05-19T03:19:12.630Z,98690.88
2023-05-19T03:21:39.227Z,98689.03
2023-05-19T03:24:05.789Z,98699.28
2023-05-19T03:26:32.128Z,98701.56
2023-05-19T03:28:58.463Z,98704.63
2023-05-19T03:31:24.829Z,98699.50
2023-05-19T03:33:51.171Z,98707.09
2023-05-19T03:36:17.479Z,98704.66
2023-05-19T03:38:43.888Z,98702.41
2023-05-19T03:41:10.310Z,98703.00
2023-05-19T03:43:36.616Z,98705.47
2023-05-19T03:46:03.189Z,98700.94
2023-05-19T03:48:29.614Z,98702.38
2023-05-19T03:50:55.980Z,98706.91
2023-05-19T03:53:22.287Z,98702.81
2023-05-19T03:55:48.788Z,98707.31
2023-05-19T03:58:15.467Z,98710.81
2023-05-19T04:00:42.524Z,98712.84
2023-05-19T04:03:08.951Z,98716.53
2023-05-19T04:05:35.458Z,98719.00
2023-05-19T04:08:01.837Z,98721.69
2023-05-19T04:10:28.409Z,98719.41
2023-05-19T04:12:54.743Z,98720.44
2023-05-19T04:15:21.079Z,98716.34
2023-05-19T04:17:47.546Z,98717.38
2023-05-19T04:20:14.056Z,98711.84
2023-05-19T04:22:40.475Z,98709.78
2023-05-19T04:25:07.165Z,98713.47
2023-05-19T04:27:33.590Z,98717.16
2023-05-19T04:30:09.869Z,98719.22
2023-05-19T04:32:41.255Z,98713.25
2023-05-19T04:35:12.993Z,98721.06
2023-05-19T04:37:39.329Z,98720.22
2023-05-19T04:40:06.418Z,98723.91
2023-05-19T04:42:37.816Z,98713.63
2023-05-19T04:45:04.524Z,98716.09
2023-05-19T04:47:31.047Z,98714.44
2023-05-19T04:49:57.499Z,98721.44
2023-05-19T04:52:23.879Z,98711.94
2023-05-19T04:54:50.334Z,98717.28
2023-05-19T04:57:16.638Z,98720.53
2023-05-19T04:59:42.977Z,98724.84
2023-05-19T05:02:09.437Z,98722.31
2023-05-19T05:04:35.826Z,98713.84
2023-05-19T05:07:02.167Z,98710.47
2023-05-19T05:09:28.621Z,98713.09
2023-05-19T05:11:55.192Z,98713.03
2023-05-19T05:14:21.836Z,98704.47
2023-05-19T05:16:48.584Z,98705.66
2023-05-19T05:19:15.356Z,98706.22
2023-05-19T05:21:42.143Z,98716.28
2023-05-19T05:24:09.494Z,98715.00
2023-05-19T05:26:35.954Z,98714.41
2023-05-19T05:29:03.571Z,98709.28
2023-05-19T05:31:29.945Z,98710.38
2023-05-19T05:33:56.425Z,98705.28
2023-05-19T05:36:22.781Z,98708.94
2023-05-19T05:38:49.189Z,98701.31
2023-05-19T05:41:15.818Z,98703.34
2023-05-19T05:43:42.120Z,98711.31
2023-05-19T05:46:08.589Z,98715.16
2023-05-19T05:48:35.467Z,98703.94
2023-05-19T05:51:02.078Z,98706.00
2023-05-19T05:53:30.705Z,98699.44
2023-05-19T05:55:57.420Z,98697.25
2023-05-19T05:58:23.749Z,98697.97
2023-05-19T06:00:50.183Z,98702.97
2023-05-19T06:03:16.543Z,98709.59
2023-05-19T06:05:42.952Z,98711.59
2023-05-19T06:08:09.320Z,98706.44
2023-05-19T06:10:35.917Z,98702.28
2023-05-19T06:13:02.479Z,98693.66
2023-05-19T06:15:28.844Z,98700.00
2023-05-19T06:17:55.203Z,98695.75
2023-05-19T06:20:21.573Z,98699.34
2023-05-19T06:22:47.929Z,98691.94
2023-05-19T06:25:14.385Z,98696.28
2023-05-19T06:27:40.796Z,98692.53
2023-05-19T06:30:07.876Z,98694.13
2023-05-19T06:32:34.264Z,98692.50
2023-05-19T06:35:00.832Z,98698.00
2023-05-19T06:37:27.165Z,98703.81
2023-05-19T06:39:53.775Z,98695.66
2023-05-19T06:42:21.187Z,98703.25
2023-05-19T06:44:51.297Z,98703.56
2023-05-19T06:47:18.334Z,98708.72
2023-05-19T06:49:45.481Z,98699.28
2023-05-19T06:52:12.201Z,98704.59
2023-05-19T06:54:38.566Z,98701.72
2023-05-19T06:57:05.329Z,98695.41
2023-05-19T06:59:31.691Z,98694.59
2023-05-19T07:01:58.099Z,98703.50
2023-05-19T07:04:24.504Z,98690.81
2023-05-19T07:06:50.912Z,98693.16
2023-05-19T07:09:17.269Z,98691.75
2023-05-19T07:11:44.150Z,98684.41
2023-05-19T07:14:10.509Z,98684.38
2023-05-19T07:16:36.850Z,98683.22
2023-05-19T07:19:03.314Z,98683.81
2023-05-19T07:21:29.686Z,98681.81
2023-05-19T07:23:56.000Z,98673.09
2023-05-19T07:26:22.334Z,98675.84
2023-05-19T07:28:48.718Z,98675.94
2023-05-19T07:31:15.068Z,98672.03
2023-05-19T07:33:41.527Z,98670.53
2023-05-19T07:36:07.947Z,98671.59
2023-05-19T07:38:34.324Z,98659.69
2023-05-19T07:41:01.557Z,98660.63
2023-05-19T07:43:27.844Z,98658.50
2023-05-19T07:45:54.822Z,98662.25
2023-05-19T07:48:21.206Z,98659.00
2023-05-19T07:50:48.132Z,98666.03
2023-05-19T08:01:13.707Z,98651.47
2023-05-19T08:14:20.733Z,98654.31
2023-05-19T08:16:47.231Z,98646.44
2023-05-19T08:21:48.793Z,98639.97
2023-05-19T08:24:15.222Z,98639.16
2023-05-19T08:26:41.759Z,98641.72
2023-05-19T08:29:08.216Z,98645.28
2023-05-19T08:31:34.626Z,98646.94
2023-05-19T08:34:01.020Z,98640.25
2023-05-19T08:36:27.434Z,98635.84
2023-05-19T08:38:53.762Z,98633.09
2023-05-19T08:41:20.274Z,98628.75
2023-05-19T08:43:46.611Z,98624.00
2023-05-19T08:46:14.072Z,98624.06
2023-05-19T08:48:42.832Z,98615.47
2023-05-19T08:51:23.174Z,98616.63
2023-05-19T08:53:51.636Z,98622.16
2023-05-19T08:56:22.357Z,98626.28
2023-05-19T08:58:52.171Z,98622.66
2023-05-19T09:01:19.561Z,98620.53
2023-05-19T09:03:47.128Z,98612.19
2023-05-19T09:06:13.662Z,98611.38
2023-05-19T09:08:44.046Z,98613.16
2023-05-19T09:11:10.889Z,98614.13
2023-05-19T09:13:37.556Z,98608.09
2023-05-19T09:16:04.724Z,98619.03
2023-05-19T09:18:31.398Z,98621.72
2023-05-19T09:20:59.812Z,98619.34
2023-05-19T09:23:31.332Z,98615.56
2023-05-19T09:26:01.097Z,98617.09
2023-05-19T09:28:32.451Z,98617.25
2023-05-19T09:31:06.971Z,98618.00
2023-05-19T09:33:35.522Z,98616.88
2023-05-19T09:36:02.817Z,98614.75
2023-05-19T09:38:29.294Z,98619.34
2023-05-19T09:40:57.125Z,98608.88
2023-05-19T09:43:23.636Z,98614.50
2023-05-19T09:46:24.416Z,98611.97
2023-05-19T09:48:50.781Z,98608.78
2023-05-19T09:51:17.303Z,98602.00
2023-05-19T09:53:47.939Z,98606.72
2023-05-19T09:56:14.548Z,98600.59
2023-05-19T09:58:42.194Z,98601.00
2023-05-19T10:01:08.859Z,98593.59
2023-05-19T10:03:35.960Z,98597.56
2023-05-19T10:06:03.848Z,98596.81
2023-05-19T10:08:31.068Z,98586.16
2023-05-19T10:10:58.253Z,98593.91
2023-05-19T10:13:25.578Z,98585.00
2023-05-19T10:15:58.765Z,98593.38
2023-05-19T10:18:26.907Z,98577.03
2023-05-19T10:20:54.287Z,98578.69
2023-05-19T10:23:20.629Z,98576.16
2023-05-19T10:25:47.899Z,98571.06
2023-05-19T10:28:17.678Z,98557.34
2023-05-19T10:30:50.565Z,98558.75
2023-05-19T10:33:19.301Z,98557.22
2023-05-19T10:36:23.330Z,98553.50
2023-05-19T10:39:07.436Z,98549.59
2023-05-19T10:41:51.026Z,98562.06
2023-05-19T10:44:23.490Z,98549.06
2023-05-19T10:46:50.394Z,98553.13
2023-05-19T10:49:23.142Z,98553.38
2023-05-19T10:51:51.982Z,98549.44
2023-05-19T10:54:41.950Z,98542.00
2023-05-19T10:57:08.639Z,98549.50
2023-05-19T10:59:36.350Z,98557.81
2023-05-19T11:02:09.207Z,98552.22
2023-05-19T11:04:51.346Z,98553.66
2023-05-19T11:07:19.204Z,98554.56
2023-05-19T11:09:50.400Z,98554.88
2023-05-19T11:12:20.828Z,98545.19
2023-05-19T11:14:47.296Z,98545.72
2023-05-19T11:17:14.991Z,98546.84
2023-05-19T11:19:52.867Z,98539.75
2023-05-19T11:22:23.727Z,98540.28
2023-05-19T11:24:50.322Z,98541.66
2023-05-19T11:27:32.846Z,98542.78
2023-05-19T11:30:09.857Z,98546.84
2023-05-19T11:32:36.381Z,98538.19
2023-05-19T11:35:02.819Z,98531.19
2023-05-19T11:37:32.161Z,98530.88
2023-05-19T11:40:02.079Z,98515.34
2023-05-19T11:42:28.446Z,98524.59
2023-05-19T11:44:55.808Z,98519.75
2023-05-19T11:47:22.287Z,98516.75
2023-05-19T11:49:51.312Z,98512.16
2023-05-19T11:52:22.158Z,98498.78
2023-05-19T11:54:49.166Z,98502.00
2023-05-19T11:57:15.432Z,98489.03
2023-05-19T11:59:41.840Z,98489.25
2023-05-19T12:02:21.189Z,98494.13
2023-05-19T12:04:51.512Z,98489.22
2023-05-19T12:07:20.159Z,98484.31
2023-05-19T12:09:47.219Z,98478.88
2023-05-19T12:12:18.469Z,98475.50
2023-05-19T12:14:46.961Z,98463.59
2023-05-19T12:17:15.610Z,98467.22
2023-05-19T12:19:46.635Z,98476.19
2023-05-19T12:22:14.552Z,98462.81
2023-05-19T12:24:42.434Z,98462.22
2023-05-19T12:32:28.000Z,98458.84
2023-05-19T12:34:57.505Z,98452.91
2023-05-19T12:37:27.115Z,98456.00
2023-05-19T12:42:34.768Z,98447.47
2023-05-19T12:45:04.156Z,98446.31
2023-05-19T12:50:09.968Z,98445.59
2023-05-19T12:55:17.919Z,98455.72
2023-05-19T12:57:49.937Z,98434.13
2023-05-19T13:00:19.198Z,98444.50
2023-05-19T13:03:08.491Z,98443.78
2023-05-19T13:05:39.370Z,98434.88
2023-05-19T13:08:20.412Z,98437.09
2023-05-19T13:10:47.752Z,98439.19
2023-05-19T13:13:14.145Z,98433.44
2023-05-19T13:15:42.247Z,98439.22
2023-05-19T13:18:10.631Z,98425.88
2023-05-19T13:20:38.207Z,98420.88
2023-05-19T13:25:37.289Z,98413.63
2023-05-19T13:28:04.407Z,98415.50
2023-05-19T13:30:35.020Z,98419.94
2023-05-19T13:33:02.247Z,98416.31
2023-05-19T13:35:28.669Z,98416.91
2023-05-19T13:37:55.068Z,98409.47
2023-05-19T13:40:21.580Z,98408.72
2023-05-19T13:42:47.962Z,98401.69
2023-05-19T13:45:14.264Z,98404.03
2023-05-19T13:47:40.784Z,98401.44
2023-05-19T13:50:07.593Z,98413.72
2023-05-19T13:57:57.761Z,98417.44
2023-05-19T14:00:24.258Z,98414.31
2023-05-19T14:02:50.719Z,98415.94
2023-05-19T14:05:17.204Z,98409.72
2023-05-19T14:07:43.678Z,98403.44
2023-05-19T14:10:10.234Z,98405.53
2023-05-19T14:12:45.052Z,98400.56
2023-05-19T14:17:59.847Z,98403.44
2023-05-19T14:20:27.934Z,98400.38
2023-05-19T14:22:55.710Z,98392.72
2023-05-19T14:25:22.040Z,98387.38
2023-05-19T14:27:48.363Z,98379.00
2023-05-19T14:30:14.775Z,98384.41
2023-05-19T14:32:41.200Z,98381.78
2023-05-19T14:35:07.827Z,98385.38
2023-05-19T14:37:34.196Z,98389.19
2023-05-19T14:40:00.563Z,98375.56
2023-05-19T14:42:26.888Z,98378.63
2023-05-19T14:44:53.325Z,98373.94
2023-05-19T14:47:19.671Z,98375.97
2023-05-19T14:49:46.158Z,98365.88
2023-05-19T14:52:12.714Z,98367.34
2023-05-19T14:54:39.044Z,98361.03
2023-05-19T14:57:05.633Z,98371.38
2023-05-19T14:59:35.671Z,98361.50
2023-05-19T15:02:02.012Z,98366.69
2023-05-19T15:04:28.408Z,98361.19
2023-05-19T15:07:05.806Z,98360.44
2023-05-19T15:09:35.495Z,98369.81
2023-05-19T15:12:01.884Z,98359.13
2023-05-19T15:17:03.494Z,98372.63
2023-05-19T15:19:29.957Z,98367.03
2023-05-19T15:21:56.409Z,98365.28
2023-05-19T15:24:22.955Z,98361.78
2023-05-19T15:26:49.374Z,98361.78
2023-05-19T15:29:15.687Z,98358.25
2023-05-19T15:31:42.082Z,98363.31
2023-05-19T15:34:08.789Z,98369.63
2023-05-19T15:36:35.164Z,98371.28
2023-05-19T15:39:01.629Z,98368.59
2023-05-19T15:41:28.026Z,98372.16
2023-05-19T15:43:54.490Z,98376.28
2023-05-19T15:46:20.901Z,98376.28
2023-05-19T15:48:47.255Z,98371.94
2023-05-19T15:53:53.753Z,98373.38
2023-05-19T15:56:20.162Z,98371.78
2023-05-19T15:58:46.528Z,98372.28
2023-05-19T16:01:13.391Z,98373.59
2023-05-19T16:03:39.863Z,98371.97
2023-05-19T16:06:06.422Z,98375.25
2023-05-19T16:08:32.834Z,98367.09
2023-05-19T16:10:59.167Z,98366.03
2023-05-19T16:13:25.728Z,98366.91
2023-05-19T16:18:27.493Z,98364.81
2023-05-19T16:20:53.828Z,98365.38
2023-05-19T16:23:20.161Z,98364.31
2023-05-19T16:25:47.683Z,98359.44
2023-05-19T16:28:14.071Z,98358.91
2023-05-19T16:33:15.742Z,98353.19
2023-05-19T16:35:42.215Z,98357.50
2023-05-19T16:38:08.668Z,98360.22
2023-05-19T16:40:35.575Z,98368.00
2023-05-19T18:27:42.988Z,98370.16
2023-05-19T18:30:09.720Z,98371.16
2023-05-19T18:32:36.792Z,98371.06
2023-05-19T18:35:03.487Z,98372.97
2023-05-19T18:37:29.897Z,98370.19
2023-05-19T18:39:56.218Z,98375.00
2023-05-19T18:42:22.660Z,98370.97
2023-05-19T18:44:48.992Z,98375.41
2023-05-19T18:47:15.329Z,98372.59
2023-05-19T18:49:41.915Z,98371.47
2023-05-19T18:52:08.320Z,98378.44
2023-05-19T18:54:34.677Z,98368.88
2023-05-19T18:57:00.998Z,98386.31
2023-05-19T18:59:27.435Z,98385.97
2023-05-19T19:01:54.202Z,98389.09
2023-05-19T19:04:21.045Z,98397.69
2023-05-19T19:06:48.593Z,98391.34
2023-05-19T19:09:15.410Z,98394.72
2023-05-19T19:11:41.829Z,98404.69
2023-05-19T19:14:08.195Z,98407.63
2023-05-19T19:16:34.587Z,98412.09
2023-05-19T19:19:01.167Z,98409.59
2023-05-19T19:21:27.722Z,98407.91
2023-05-19T19:23:54.062Z,98410.81
2023-05-19T19:26:20.989Z,98413.66
2023-05-19T19:28:47.450Z,98418.97
2023-05-19T19:31:13.902Z,98415.22
2023-05-19T19:33:40.262Z,98417.53
2023-05-19T19:36:06.650Z,98420.38
2023-05-19T19:38:33.098Z,98418.44
2023-05-19T19:40:59.505Z,98418.34
2023-05-19T19:43:26.006Z,98426.31
2023-05-19T19:46:02.694Z,98431.88
2023-05-19T19:48:29.187Z,98432.03
2023-05-19T19:50:56.459Z,98430.66
2023-05-19T19:53:23.042Z,98431.31
2023-05-19T19:55:57.026Z,98430.69
2023-05-19T19:58:23.802Z,98425.06
2023-05-19T20:00:50.457Z,98438.41
2023-05-19T20:03:16.926Z,98426.69
2023-05-19T20:05:43.655Z,98427.75
2023-05-19T20:08:10.007Z,98430.44
2023-05-19T20:10:36.582Z,98424.81
2023-05-19T20:13:03.038Z,98423.19
2023-05-19T20:18:04.734Z,98414.22
2023-05-19T20:20:31.575Z,98422.19
2023-05-19T20:22:58.090Z,98420.56
2023-05-19T20:25:24.542Z,98421.28
2023-05-19T20:30:24.841Z,98427.53
2023-05-19T20:32:51.198Z,98417.41
2023-05-19T20:35:17.771Z,98419.41
2023-05-19T20:37:44.125Z,98426.91
2023-05-19T20:40:10.695Z,98426.09
2023-05-19T20:42:39.256Z,98429.72
2023-05-19T20:47:42.332Z,98431.88
2023-05-19T20:52:43.455Z,98427.25
2023-05-19T20:55:09.900Z,98438.44
2023-05-19T20:57:36.272Z,98430.28
2023-05-19T21:00:03.220Z,98432.97
2023-05-19T21:02:29.602Z,98434.84
2023-05-19T21:04:56.029Z,98439.41
2023-05-19T21:07:22.464Z,98433.78
2023-05-19T21:09:48.848Z,98442.09
2023-05-19T21:12:15.263Z,98435.78
2023-05-19T21:14:41.761Z,98440.25
2023-05-19T21:17:08.358Z,98425.66
2023-05-19T21:19:37.066Z,98429.56
2023-05-19T21:22:03.721Z,98432.50
2023-05-19T21:24:30.211Z,98427.38
2023-05-19T21:26:56.582Z,98423.53
2023-05-19T21:29:22.904Z,98425.88
2023-05-19T21:31:49.418Z,98423.06
2023-05-19T21:34:15.744Z,98422.16
2023-05-19T21:39:17.294Z,98420.75
2023-05-19T21:41:43.607Z,98415.28
2023-05-19T21:44:09.925Z,98416.78
2023-05-19T21:46:36.486Z,98427.94
2023-05-19T21:51:38.085Z,98411.75
2023-05-19T21:54:04.432Z,98415.13
2023-05-19T21:56:30.762Z,98412.09
2023-05-19T21:58:57.228Z,98411.75
2023-05-19T22:01:23.591Z,98419.22
2023-05-19T22:03:50.084Z,98416.06
2023-05-19T22:06:16.551Z,98412.09
2023-05-19T22:08:42.989Z,98404.63
2023-05-19T22:11:09.375Z,98409.31
2023-05-19T22:13:35.712Z,98404.88
2023-05-19T22:16:02.130Z,98394.50
2023-05-19T22:18:28.471Z,98398.59
2023-05-19T22:20:54.897Z,98401.63
2023-05-19T22:23:21.231Z,98391.81
2023-05-19T22:25:47.564Z,98397.88
2023-05-19T22:28:13.972Z,98405.00
2023-05-19T22:30:41.173Z,98395.31
2023-05-19T22:33:08.692Z,98389.00
2023-05-19T22:35:35.081Z,98391.47
2023-05-19T22:38:01.420Z,98391.59
2023-05-19T22:40:27.809Z,98387.28
2023-05-19T22:42:54.264Z,98384.34
2023-05-19T22:45:20.671Z,98380.16
2023-05-19T22:47:47.064Z,98381.78
2023-05-19T22:50:13.561Z,98391.59
2023-05-19T22:52:40.009Z,98374.53
2023-05-19T22:55:06.986Z,98380.34
2023-05-19T22:57:33.297Z,98379.28
2023-05-19T22:59:59.660Z,98377.19
2023-05-19T23:02:26.732Z,98382.06
2023-05-19T23:04:53.140Z,98387.28
2023-05-19T23:07:19.480Z,98381.25
2023-05-19T23:09:45.986Z,98383.13
2023-05-19T23:12:12.339Z,98382.31
2023-05-19T23:14:38.672Z,98380.69
2023-05-19T23:17:05.505Z,98376.63
2023-05-19T23:19:32.018Z,98374.16
2023-05-19T23:21:58.444Z,98379.53
2023-05-19T23:24:24.867Z,98369.84
2023-05-19T23:26:51.226Z,98363.66
2023-05-19T23:29:17.556Z,98364.81
2023-05-19T23:31:44.460Z,98362.72
2023-05-19T23:34:11.112Z,98362.31
2023-05-19T23:36:37.517Z,98354.00
2023-05-19T23:39:03.877Z,98356.94
2023-05-19T23:41:30.218Z,98357.09
2023-05-19T23:43:56.668Z,98358.16
2023-05-19T23:46:23.282Z,98362.72
2023-05-19T23:48:49.675Z,98355.38
2023-05-19T23:51:16.056Z,98353.97
2023-05-19T23:53:42.389Z,98357.72
2023-05-19T23:56:08.747Z,98349.91
2023-05-19T23:58:35.194Z,98349.91
